sensor_id;sensor_type;location;lat;lon;timestamp;temperature;humidity
66582;SHT31;53438;48.898;2.308;2023-06-22T03:02:55;21.90;65.48
66582;SHT31;53438;48.898;2.308;2023-06-22T03:05:21;21.76;66.09
66582;SHT31;53438;48.898;2.308;2023-06-22T03:07:46;21.85;65.80
66582;SHT31;53438;48.898;2.308;2023-06-22T03:10:13;21.81;65.86
66582;SHT31;53438;48.898;2.308;2023-06-22T03:12:39;21.82;65.88
66582;SHT31;53438;48.898;2.308;2023-06-22T03:15:06;21.86;65.88
66582;SHT31;53438;48.898;2.308;2023-06-22T03:17:33;21.93;65.59
66582;SHT31;53438;48.898;2.308;2023-06-22T03:19:58;21.89;65.66
66582;SHT31;53438;48.898;2.308;2023-06-22T03:22:24;21.83;65.71
66582;SHT31;53438;48.898;2.308;2023-06-22T03:24:49;21.75;65.99
66582;SHT31;53438;48.898;2.308;2023-06-22T03:27:14;21.71;66.25
66582;SHT31;53438;48.898;2.308;2023-06-22T03:29:40;21.51;66.69
66582;SHT31;53438;48.898;2.308;2023-06-22T03:32:05;21.59;66.67
66582;SHT31;53438;48.898;2.308;2023-06-22T03:34:32;21.71;66.14
66582;SHT31;53438;48.898;2.308;2023-06-22T03:36:59;21.61;66.66
66582;SHT31;53438;48.898;2.308;2023-06-22T03:39:24;21.69;66.65
66582;SHT31;53438;48.898;2.308;2023-06-22T03:41:50;21.63;66.88
66582;SHT31;53438;48.898;2.308;2023-06-22T03:44:15;21.45;67.34
66582;SHT31;53438;48.898;2.308;2023-06-22T03:46:40;21.56;67.16
66582;SHT31;53438;48.898;2.308;2023-06-22T03:49:06;21.42;67.88
66582;SHT31;53438;48.898;2.308;2023-06-22T03:51:32;21.39;67.83
66582;SHT31;53438;48.898;2.308;2023-06-22T03:53:58;21.34;68.16
66582;SHT31;53438;48.898;2.308;2023-06-22T03:56:23;21.38;68.14
66582;SHT31;53438;48.898;2.308;2023-06-22T03:58:48;21.38;68.09
66582;SHT31;53438;48.898;2.308;2023-06-22T04:01:14;21.46;67.88
66582;SHT31;53438;48.898;2.308;2023-06-22T04:03:41;21.44;67.94
66582;SHT31;53438;48.898;2.308;2023-06-22T04:06:06;21.49;67.84
66582;SHT31;53438;48.898;2.308;2023-06-22T04:08:31;21.48;67.84
66582;SHT31;53438;48.898;2.308;2023-06-22T04:10:56;21.52;67.76
66582;SHT31;53438;48.898;2.308;2023-06-22T04:13:22;21.46;67.81
66582;SHT31;53438;48.898;2.308;2023-06-22T04:15:47;21.51;67.63
66582;SHT31;53438;48.898;2.308;2023-06-22T04:18:13;21.41;67.90
66582;SHT31;53438;48.898;2.308;2023-06-22T04:20:38;21.49;67.69
66582;SHT31;53438;48.898;2.308;2023-06-22T04:23:04;21.51;67.52
66582;SHT31;53438;48.898;2.308;2023-06-22T04:25:29;21.37;68.00
66582;SHT31;53438;48.898;2.308;2023-06-22T04:27:54;21.42;67.93
66582;SHT31;53438;48.898;2.308;2023-06-22T04:30:20;21.38;67.97
66582;SHT31;53438;48.898;2.308;2023-06-22T04:32:45;21.17;68.70
66582;SHT31;53438;48.898;2.308;2023-06-22T04:35:21;21.27;68.72
66582;SHT31;53438;48.898;2.308;2023-06-22T04:37:47;21.37;68.43
66582;SHT31;53438;48.898;2.308;2023-06-22T04:40:14;21.38;68.81
66582;SHT31;53438;48.898;2.308;2023-06-22T04:42:40;21.30;69.42
66582;SHT31;53438;48.898;2.308;2023-06-22T04:45:05;21.37;69.00
66582;SHT31;53438;48.898;2.308;2023-06-22T04:47:31;21.32;69.52
66582;SHT31;53438;48.898;2.308;2023-06-22T04:49:56;21.37;69.57
66582;SHT31;53438;48.898;2.308;2023-06-22T04:52:21;21.20;69.85
66582;SHT31;53438;48.898;2.308;2023-06-22T04:54:47;21.24;70.92
66582;SHT31;53438;48.898;2.308;2023-06-22T04:57:20;21.18;71.16
66582;SHT31;53438;48.898;2.308;2023-06-22T04:59:45;21.14;71.63
66582;SHT31;53438;48.898;2.308;2023-06-22T05:02:11;21.25;71.60
66582;SHT31;53438;48.898;2.308;2023-06-22T05:04:36;21.10;71.59
66582;SHT31;53438;48.898;2.308;2023-06-22T05:07:03;21.21;72.48
66582;SHT31;53438;48.898;2.308;2023-06-22T05:09:29;21.14;72.69
66582;SHT31;53438;48.898;2.308;2023-06-22T05:11:54;21.17;72.31
66582;SHT31;53438;48.898;2.308;2023-06-22T05:14:21;21.10;72.17
66582;SHT31;53438;48.898;2.308;2023-06-22T05:16:48;21.17;72.82
66582;SHT31;53438;48.898;2.308;2023-06-22T05:19:14;21.05;72.82
66582;SHT31;53438;48.898;2.308;2023-06-22T05:21:39;21.10;73.03
66582;SHT31;53438;48.898;2.308;2023-06-22T05:24:05;21.12;73.48
66582;SHT31;53438;48.898;2.308;2023-06-22T05:26:33;21.17;73.09
66582;SHT31;53438;48.898;2.308;2023-06-22T05:29:00;21.23;72.67
66582;SHT31;53438;48.898;2.308;2023-06-22T05:31:26;21.05;73.83
66582;SHT31;53438;48.898;2.308;2023-06-22T05:33:53;21.08;73.99
66582;SHT31;53438;48.898;2.308;2023-06-22T05:36:18;21.04;74.72
66582;SHT31;53438;48.898;2.308;2023-06-22T05:38:51;21.01;75.07
66582;SHT31;53438;48.898;2.308;2023-06-22T05:41:16;20.84;75.42
66582;SHT31;53438;48.898;2.308;2023-06-22T05:43:41;20.83;75.43
66582;SHT31;53438;48.898;2.308;2023-06-22T05:46:07;20.72;75.99
66582;SHT31;53438;48.898;2.308;2023-06-22T05:48:32;20.93;76.10
66582;SHT31;53438;48.898;2.308;2023-06-22T05:50:58;20.87;76.96
66582;SHT31;53438;48.898;2.308;2023-06-22T05:53:24;20.87;78.01
66582;SHT31;53438;48.898;2.308;2023-06-22T05:55:49;20.83;78.30
66582;SHT31;53438;48.898;2.308;2023-06-22T05:58:14;20.91;77.74
66582;SHT31;53438;48.898;2.308;2023-06-22T06:00:41;20.75;78.63
66582;SHT31;53438;48.898;2.308;2023-06-22T06:03:07;20.67;78.19
66582;SHT31;53438;48.898;2.308;2023-06-22T06:05:33;20.77;77.89
66582;SHT31;53438;48.898;2.308;2023-06-22T06:08:04;20.52;78.66
66582;SHT31;53438;48.898;2.308;2023-06-22T06:10:31;20.83;78.17
66582;SHT31;53438;48.898;2.308;2023-06-22T06:12:56;20.77;79.04
66582;SHT31;53438;48.898;2.308;2023-06-22T06:15:22;20.66;79.48
66582;SHT31;53438;48.898;2.308;2023-06-22T06:17:48;20.62;79.73
66582;SHT31;53438;48.898;2.308;2023-06-22T06:20:14;20.42;80.26
66582;SHT31;53438;48.898;2.308;2023-06-22T06:22:39;20.52;80.40
66582;SHT31;53438;48.898;2.308;2023-06-22T06:25:05;20.50;79.85
66582;SHT31;53438;48.898;2.308;2023-06-22T06:27:30;20.43;80.78
66582;SHT31;53438;48.898;2.308;2023-06-22T06:29:56;20.45;80.52
66582;SHT31;53438;48.898;2.308;2023-06-22T06:32:22;20.57;79.70
66582;SHT31;53438;48.898;2.308;2023-06-22T06:34:48;20.21;80.36
66582;SHT31;53438;48.898;2.308;2023-06-22T06:37:13;20.26;80.93
66582;SHT31;53438;48.898;2.308;2023-06-22T06:39:39;20.25;80.78
66582;SHT31;53438;48.898;2.308;2023-06-22T06:42:05;20.19;81.35
66582;SHT31;53438;48.898;2.308;2023-06-22T06:44:30;20.16;81.95
66582;SHT31;53438;48.898;2.308;2023-06-22T06:46:56;20.18;81.71
66582;SHT31;53438;48.898;2.308;2023-06-22T06:49:21;20.11;82.00
66582;SHT31;53438;48.898;2.308;2023-06-22T06:51:47;19.81;81.81
66582;SHT31;53438;48.898;2.308;2023-06-22T06:54:12;19.94;83.16
66582;SHT31;53438;48.898;2.308;2023-06-22T06:56:37;20.04;83.07
66582;SHT31;53438;48.898;2.308;2023-06-22T06:59:03;20.11;83.35
66582;SHT31;53438;48.898;2.308;2023-06-22T07:01:28;20.01;82.26
66582;SHT31;53438;48.898;2.308;2023-06-22T07:03:58;20.05;82.93
66582;SHT31;53438;48.898;2.308;2023-06-22T07:06:23;19.87;83.42
66582;SHT31;53438;48.898;2.308;2023-06-22T07:08:54;19.91;84.30
66582;SHT31;53438;48.898;2.308;2023-06-22T07:11:20;19.92;83.77
66582;SHT31;53438;48.898;2.308;2023-06-22T07:13:45;19.77;83.88
66582;SHT31;53438;48.898;2.308;2023-06-22T07:16:10;19.75;84.90
66582;SHT31;53438;48.898;2.308;2023-06-22T07:18:36;19.84;84.49
66582;SHT31;53438;48.898;2.308;2023-06-22T07:21:01;19.50;85.02
66582;SHT31;53438;48.898;2.308;2023-06-22T07:23:27;19.34;85.84
66582;SHT31;53438;48.898;2.308;2023-06-22T07:25:53;19.47;85.51
66582;SHT31;53438;48.898;2.308;2023-06-22T07:28:18;19.56;85.41
66582;SHT31;53438;48.898;2.308;2023-06-22T07:30:44;19.26;85.23
66582;SHT31;53438;48.898;2.308;2023-06-22T07:33:10;19.02;86.57
66582;SHT31;53438;48.898;2.308;2023-06-22T07:35:35;19.08;86.38
66582;SHT31;53438;48.898;2.308;2023-06-22T07:38:00;19.19;86.34
66582;SHT31;53438;48.898;2.308;2023-06-22T07:40:26;19.24;86.13
66582;SHT31;53438;48.898;2.308;2023-06-22T07:42:51;19.29;86.17
66582;SHT31;53438;48.898;2.308;2023-06-22T07:45:18;19.34;85.92
66582;SHT31;53438;48.898;2.308;2023-06-22T07:47:43;19.36;87.63
66582;SHT31;53438;48.898;2.308;2023-06-22T07:50:09;19.00;87.89
66582;SHT31;53438;48.898;2.308;2023-06-22T07:52:35;19.24;87.10
66582;SHT31;53438;48.898;2.308;2023-06-22T07:55:00;19.34;86.30
66582;SHT31;53438;48.898;2.308;2023-06-22T07:57:26;19.09;87.05
66582;SHT31;53438;48.898;2.308;2023-06-22T07:59:58;19.00;87.25
66582;SHT31;53438;48.898;2.308;2023-06-22T08:02:24;18.99;87.71
66582;SHT31;53438;48.898;2.308;2023-06-22T08:04:49;18.92;88.31
66582;SHT31;53438;48.898;2.308;2023-06-22T08:07:15;18.88;87.80
66582;SHT31;53438;48.898;2.308;2023-06-22T08:09:46;18.88;88.55
66582;SHT31;53438;48.898;2.308;2023-06-22T08:12:12;18.91;88.55
66582;SHT31;53438;48.898;2.308;2023-06-22T08:14:38;18.98;88.15
66582;SHT31;53438;48.898;2.308;2023-06-22T08:17:04;19.05;87.62
66582;SHT31;53438;48.898;2.308;2023-06-22T08:19:29;18.89;87.94
66582;SHT31;53438;48.898;2.308;2023-06-22T08:21:54;18.85;88.65
66582;SHT31;53438;48.898;2.308;2023-06-22T08:24:20;18.82;88.44
66582;SHT31;53438;48.898;2.308;2023-06-22T08:26:45;18.85;88.91
66582;SHT31;53438;48.898;2.308;2023-06-22T08:29:11;18.81;88.97
66582;SHT31;53438;48.898;2.308;2023-06-22T08:31:36;18.78;88.95
66582;SHT31;53438;48.898;2.308;2023-06-22T08:34:01;18.85;89.04
66582;SHT31;53438;48.898;2.308;2023-06-22T08:36:27;18.89;88.98
66582;SHT31;53438;48.898;2.308;2023-06-22T08:38:58;18.94;88.91
66582;SHT31;53438;48.898;2.308;2023-06-22T08:41:28;18.71;89.19
66582;SHT31;53438;48.898;2.308;2023-06-22T08:43:53;18.76;90.09
66582;SHT31;53438;48.898;2.308;2023-06-22T08:46:19;18.64;90.13
66582;SHT31;53438;48.898;2.308;2023-06-22T08:48:48;18.67;89.25
66582;SHT31;53438;48.898;2.308;2023-06-22T08:51:13;18.64;90.01
66582;SHT31;53438;48.898;2.308;2023-06-22T08:53:39;18.68;89.22
66582;SHT31;53438;48.898;2.308;2023-06-22T08:56:04;18.64;89.13
66582;SHT31;53438;48.898;2.308;2023-06-22T08:58:30;18.58;89.18
66582;SHT31;53438;48.898;2.308;2023-06-22T09:00:55;18.73;89.64
66582;SHT31;53438;48.898;2.308;2023-06-22T09:03:20;18.91;89.44
66582;SHT31;53438;48.898;2.308;2023-06-22T09:05:46;18.79;89.00
66582;SHT31;53438;48.898;2.308;2023-06-22T09:08:11;18.76;88.48
66582;SHT31;53438;48.898;2.308;2023-06-22T09:10:37;18.69;88.86
66582;SHT31;53438;48.898;2.308;2023-06-22T09:13:02;18.79;88.85
66582;SHT31;53438;48.898;2.308;2023-06-22T09:15:27;18.94;88.02
66582;SHT31;53438;48.898;2.308;2023-06-22T09:17:53;18.73;87.72
66582;SHT31;53438;48.898;2.308;2023-06-22T09:20:19;18.78;88.22
66582;SHT31;53438;48.898;2.308;2023-06-22T09:22:45;18.89;87.98
66582;SHT31;53438;48.898;2.308;2023-06-22T09:25:10;18.96;87.12
66582;SHT31;53438;48.898;2.308;2023-06-22T09:27:35;18.92;86.72
66582;SHT31;53438;48.898;2.308;2023-06-22T09:30:01;18.94;87.40
66582;SHT31;53438;48.898;2.308;2023-06-22T09:32:27;18.69;86.90
66582;SHT31;53438;48.898;2.308;2023-06-22T09:34:53;18.76;87.57
66582;SHT31;53438;48.898;2.308;2023-06-22T09:37:18;18.85;86.93
66582;SHT31;53438;48.898;2.308;2023-06-22T09:39:43;18.95;86.79
66582;SHT31;53438;48.898;2.308;2023-06-22T09:42:09;19.02;87.03
66582;SHT31;53438;48.898;2.308;2023-06-22T09:44:34;18.79;87.44
66582;SHT31;53438;48.898;2.308;2023-06-22T09:47:00;18.79;87.04
66582;SHT31;53438;48.898;2.308;2023-06-22T09:49:25;18.76;87.40
66582;SHT31;53438;48.898;2.308;2023-06-22T09:51:51;18.94;87.03
66582;SHT31;53438;48.898;2.308;2023-06-22T09:54:17;18.85;86.99
66582;SHT31;53438;48.898;2.308;2023-06-22T09:56:43;18.98;86.62
66582;SHT31;53438;48.898;2.308;2023-06-22T09:59:08;18.96;86.83
66582;SHT31;53438;48.898;2.308;2023-06-22T10:01:34;18.99;86.61
66582;SHT31;53438;48.898;2.308;2023-06-22T10:03:59;18.99;86.06
66582;SHT31;53438;48.898;2.308;2023-06-22T10:06:24;18.99;85.95
66582;SHT31;53438;48.898;2.308;2023-06-22T10:08:53;19.09;86.23
66582;SHT31;53438;48.898;2.308;2023-06-22T10:11:18;19.08;85.54
66582;SHT31;53438;48.898;2.308;2023-06-22T10:13:43;19.29;85.30
66582;SHT31;53438;48.898;2.308;2023-06-22T10:16:09;19.33;85.00
66582;SHT31;53438;48.898;2.308;2023-06-22T10:18:34;19.37;84.80
66582;SHT31;53438;48.898;2.308;2023-06-22T10:21:00;19.40;84.23
66582;SHT31;53438;48.898;2.308;2023-06-22T10:23:25;19.50;83.78
66582;SHT31;53438;48.898;2.308;2023-06-22T10:25:51;19.61;83.69
66582;SHT31;53438;48.898;2.308;2023-06-22T10:28:16;19.51;83.96
66582;SHT31;53438;48.898;2.308;2023-06-22T10:30:42;19.57;84.18
66582;SHT31;53438;48.898;2.308;2023-06-22T10:33:08;19.51;83.74
66582;SHT31;53438;48.898;2.308;2023-06-22T10:35:35;19.54;84.30
66582;SHT31;53438;48.898;2.308;2023-06-22T10:38:03;19.71;82.72
66582;SHT31;53438;48.898;2.308;2023-06-22T10:40:28;19.87;83.23
66582;SHT31;53438;48.898;2.308;2023-06-22T10:42:54;19.88;82.89
66582;SHT31;53438;48.898;2.308;2023-06-22T10:45:19;20.14;81.87
66582;SHT31;53438;48.898;2.308;2023-06-22T10:47:44;20.07;81.90
66582;SHT31;53438;48.898;2.308;2023-06-22T10:50:10;20.24;81.39
66582;SHT31;53438;48.898;2.308;2023-06-22T10:52:36;20.28;81.34
66582;SHT31;53438;48.898;2.308;2023-06-22T10:55:02;20.40;81.50
66582;SHT31;53438;48.898;2.308;2023-06-22T10:57:27;20.53;80.34
66582;SHT31;53438;48.898;2.308;2023-06-22T10:59:53;20.40;79.99
66582;SHT31;53438;48.898;2.308;2023-06-22T11:02:18;20.50;79.88
66582;SHT31;53438;48.898;2.308;2023-06-22T11:04:43;20.47;79.64
66582;SHT31;53438;48.898;2.308;2023-06-22T11:07:09;20.53;78.61
66582;SHT31;53438;48.898;2.308;2023-06-22T11:09:34;20.62;78.89
66582;SHT31;53438;48.898;2.308;2023-06-22T11:12:00;20.55;79.15
66582;SHT31;53438;48.898;2.308;2023-06-22T11:14:25;20.56;79.18
66582;SHT31;53438;48.898;2.308;2023-06-22T11:16:51;20.49;78.83
66582;SHT31;53438;48.898;2.308;2023-06-22T11:19:16;20.75;78.95
66582;SHT31;53438;48.898;2.308;2023-06-22T11:21:42;20.57;79.03
66582;SHT31;53438;48.898;2.308;2023-06-22T11:24:07;20.45;78.76
66582;SHT31;53438;48.898;2.308;2023-06-22T11:26:33;20.62;78.81
66582;SHT31;53438;48.898;2.308;2023-06-22T11:28:58;20.84;77.97
66582;SHT31;53438;48.898;2.308;2023-06-22T11:31:24;20.62;78.31
66582;SHT31;53438;48.898;2.308;2023-06-22T11:33:50;20.69;78.34
66582;SHT31;53438;48.898;2.308;2023-06-22T11:36:15;20.70;77.92
66582;SHT31;53438;48.898;2.308;2023-06-22T11:38:41;20.77;77.90
66582;SHT31;53438;48.898;2.308;2023-06-22T11:41:06;20.63;77.08
66582;SHT31;53438;48.898;2.308;2023-06-22T11:43:32;20.88;77.18
66582;SHT31;53438;48.898;2.308;2023-06-22T11:45:58;20.98;76.57
66582;SHT31;53438;48.898;2.308;2023-06-22T11:48:26;21.00;76.76
66582;SHT31;53438;48.898;2.308;2023-06-22T11:50:52;20.73;76.72
66582;SHT31;53438;48.898;2.308;2023-06-22T11:53:17;20.98;76.76
66582;SHT31;53438;48.898;2.308;2023-06-22T11:55:43;21.10;76.20
66582;SHT31;53438;48.898;2.308;2023-06-22T11:58:09;21.14;76.22
66582;SHT31;53438;48.898;2.308;2023-06-22T12:00:34;21.25;75.27
66582;SHT31;53438;48.898;2.308;2023-06-22T12:03:00;21.05;75.02
66582;SHT31;53438;48.898;2.308;2023-06-22T12:05:25;21.25;75.12
66582;SHT31;53438;48.898;2.308;2023-06-22T12:07:53;21.20;75.86
66582;SHT31;53438;48.898;2.308;2023-06-22T12:10:18;21.11;75.03
66582;SHT31;53438;48.898;2.308;2023-06-22T12:12:44;21.14;75.50
66582;SHT31;53438;48.898;2.308;2023-06-22T12:15:10;21.41;74.77
66582;SHT31;53438;48.898;2.308;2023-06-22T12:17:35;21.37;74.19
66582;SHT31;53438;48.898;2.308;2023-06-22T12:20:01;21.20;75.19
66582;SHT31;53438;48.898;2.308;2023-06-22T12:22:27;21.51;74.85
66582;SHT31;53438;48.898;2.308;2023-06-22T12:24:52;21.39;74.66
66582;SHT31;53438;48.898;2.308;2023-06-22T12:27:18;21.51;74.35
66582;SHT31;53438;48.898;2.308;2023-06-22T12:29:45;21.56;73.73
66582;SHT31;53438;48.898;2.308;2023-06-22T12:32:11;21.55;74.03
66582;SHT31;53438;48.898;2.308;2023-06-22T12:34:39;21.48;74.40
66582;SHT31;53438;48.898;2.308;2023-06-22T12:37:04;21.56;73.63
66582;SHT31;53438;48.898;2.308;2023-06-22T12:39:31;21.72;73.95
66582;SHT31;53438;48.898;2.308;2023-06-22T12:41:56;21.61;73.39
66582;SHT31;53438;48.898;2.308;2023-06-22T12:44:22;21.89;73.27
66582;SHT31;53438;48.898;2.308;2023-06-22T12:46:47;21.93;72.67
66582;SHT31;53438;48.898;2.308;2023-06-22T12:49:13;21.99;72.05
66582;SHT31;53438;48.898;2.308;2023-06-22T12:51:42;22.04;72.32
66582;SHT31;53438;48.898;2.308;2023-06-22T12:54:08;21.93;71.63
66582;SHT31;53438;48.898;2.308;2023-06-22T12:56:34;22.04;71.65
66582;SHT31;53438;48.898;2.308;2023-06-22T12:58:59;22.07;71.89
66582;SHT31;53438;48.898;2.308;2023-06-22T13:01:28;22.02;71.76
66582;SHT31;53438;48.898;2.308;2023-06-22T13:03:53;22.02;71.33
66582;SHT31;53438;48.898;2.308;2023-06-22T13:06:19;22.13;71.13
66582;SHT31;53438;48.898;2.308;2023-06-22T13:08:44;22.14;71.44
66582;SHT31;53438;48.898;2.308;2023-06-22T13:11:09;22.23;71.53
66582;SHT31;53438;48.898;2.308;2023-06-22T13:13:35;22.18;71.83
66582;SHT31;53438;48.898;2.308;2023-06-22T13:16:00;22.10;72.35
66582;SHT31;53438;48.898;2.308;2023-06-22T13:18:26;22.02;71.72
66582;SHT31;53438;48.898;2.308;2023-06-22T13:20:51;21.99;71.66
66582;SHT31;53438;48.898;2.308;2023-06-22T13:23:19;22.06;72.21
66582;SHT31;53438;48.898;2.308;2023-06-22T13:25:45;22.09;71.83
66582;SHT31;53438;48.898;2.308;2023-06-22T13:28:10;22.14;70.75
66582;SHT31;53438;48.898;2.308;2023-06-22T13:30:37;22.21;70.62
66582;SHT31;53438;48.898;2.308;2023-06-22T13:33:02;22.20;70.76
66582;SHT31;53438;48.898;2.308;2023-06-22T13:35:28;22.27;70.26
66582;SHT31;53438;48.898;2.308;2023-06-22T13:37:53;22.26;70.36
66582;SHT31;53438;48.898;2.308;2023-06-22T13:40:18;22.32;70.34
66582;SHT31;53438;48.898;2.308;2023-06-22T13:42:44;22.45;70.21
66582;SHT31;53438;48.898;2.308;2023-06-22T13:45:09;22.50;70.42
66582;SHT31;53438;48.898;2.308;2023-06-22T13:47:35;22.51;69.60
66582;SHT31;53438;48.898;2.308;2023-06-22T13:50:00;22.54;69.51
66582;SHT31;53438;48.898;2.308;2023-06-22T13:52:25;22.36;69.85
66582;SHT31;53438;48.898;2.308;2023-06-22T13:54:51;22.39;68.73
66582;SHT31;53438;48.898;2.308;2023-06-22T13:57:16;22.37;68.91
66582;SHT31;53438;48.898;2.308;2023-06-22T13:59:42;22.44;68.78
66582;SHT31;53438;48.898;2.308;2023-06-22T14:02:07;22.54;68.94
66582;SHT31;53438;48.898;2.308;2023-06-22T14:04:33;22.63;69.09
66582;SHT31;53438;48.898;2.308;2023-06-22T14:06:58;22.76;69.43
66582;SHT31;53438;48.898;2.308;2023-06-22T14:09:24;22.57;68.81
66582;SHT31;53438;48.898;2.308;2023-06-22T14:11:49;22.65;68.48
66582;SHT31;53438;48.898;2.308;2023-06-22T14:14:14;22.71;68.89
66582;SHT31;53438;48.898;2.308;2023-06-22T14:16:40;22.79;68.36
66582;SHT31;53438;48.898;2.308;2023-06-22T14:19:05;22.76;67.19
66582;SHT31;53438;48.898;2.308;2023-06-22T14:21:30;22.64;67.25
66582;SHT31;53438;48.898;2.308;2023-06-22T14:23:56;22.63;67.45
66582;SHT31;53438;48.898;2.308;2023-06-22T14:26:21;22.63;67.36
66582;SHT31;53438;48.898;2.308;2023-06-22T14:28:48;22.71;67.58
66582;SHT31;53438;48.898;2.308;2023-06-22T14:31:16;22.81;67.85
66582;SHT31;53438;48.898;2.308;2023-06-22T14:33:47;22.84;66.80
66582;SHT31;53438;48.898;2.308;2023-06-22T14:36:13;22.74;67.03
66582;SHT31;53438;48.898;2.308;2023-06-22T14:38:40;22.85;67.32
66582;SHT31;53438;48.898;2.308;2023-06-22T14:41:06;22.84;67.31
66582;SHT31;53438;48.898;2.308;2023-06-22T14:43:31;22.94;67.34
66582;SHT31;53438;48.898;2.308;2023-06-22T14:45:56;23.05;67.51
66582;SHT31;53438;48.898;2.308;2023-06-22T14:48:22;22.99;67.38
66582;SHT31;53438;48.898;2.308;2023-06-22T14:50:47;22.98;67.34
66582;SHT31;53438;48.898;2.308;2023-06-22T14:53:13;23.01;67.14
66582;SHT31;53438;48.898;2.308;2023-06-22T14:55:39;23.13;66.77
66582;SHT31;53438;48.898;2.308;2023-06-22T14:58:04;23.16;66.04
66582;SHT31;53438;48.898;2.308;2023-06-22T15:00:30;23.19;66.03
66582;SHT31;53438;48.898;2.308;2023-06-22T15:02:55;23.18;65.65
66582;SHT31;53438;48.898;2.308;2023-06-22T15:05:20;23.11;65.85
66582;SHT31;53438;48.898;2.308;2023-06-22T15:07:46;23.22;66.06
66582;SHT31;53438;48.898;2.308;2023-06-22T15:10:11;23.34;66.36
66582;SHT31;53438;48.898;2.308;2023-06-22T15:12:36;23.46;65.10
66582;SHT31;53438;48.898;2.308;2023-06-22T15:15:02;23.52;65.39
66582;SHT31;53438;48.898;2.308;2023-06-22T15:17:27;23.50;64.57
66582;SHT31;53438;48.898;2.308;2023-06-22T15:22:21;23.66;64.05
66582;SHT31;53438;48.898;2.308;2023-06-22T15:24:46;23.62;63.85
66582;SHT31;53438;48.898;2.308;2023-06-22T15:27:13;23.71;63.84
66582;SHT31;53438;48.898;2.308;2023-06-22T15:29:39;23.74;63.74
66582;SHT31;53438;48.898;2.308;2023-06-22T15:32:06;23.80;63.81
66582;SHT31;53438;48.898;2.308;2023-06-22T15:34:31;23.84;63.58
66582;SHT31;53438;48.898;2.308;2023-06-22T15:36:57;23.84;62.81
66582;SHT31;53438;48.898;2.308;2023-06-22T15:39:22;24.01;63.47
66582;SHT31;53438;48.898;2.308;2023-06-22T15:41:50;24.26;62.31
66582;SHT31;53438;48.898;2.308;2023-06-22T15:44:15;24.35;61.87
66582;SHT31;53438;48.898;2.308;2023-06-22T15:46:40;24.41;60.87
66582;SHT31;53438;48.898;2.308;2023-06-22T15:49:05;24.63;60.77
66582;SHT31;53438;48.898;2.308;2023-06-22T15:51:31;24.73;60.07
66582;SHT31;53438;48.898;2.308;2023-06-22T15:53:56;24.93;59.74
66582;SHT31;53438;48.898;2.308;2023-06-22T15:56:22;25.19;58.73
66582;SHT31;53438;48.898;2.308;2023-06-22T15:58:50;25.37;57.72
66582;SHT31;53438;48.898;2.308;2023-06-22T16:01:15;25.42;57.83
66582;SHT31;53438;48.898;2.308;2023-06-22T16:03:41;25.41;57.21
66582;SHT31;53438;48.898;2.308;2023-06-22T16:06:06;25.44;56.56
66582;SHT31;53438;48.898;2.308;2023-06-22T16:08:31;25.54;57.16
66582;SHT31;53438;48.898;2.308;2023-06-22T16:10:59;25.30;56.18
66582;SHT31;53438;48.898;2.308;2023-06-22T16:13:24;25.11;54.23
66582;SHT31;53438;48.898;2.308;2023-06-22T16:15:49;24.96;54.66
66582;SHT31;53438;48.898;2.308;2023-06-22T16:18:15;25.06;54.08
66582;SHT31;53438;48.898;2.308;2023-06-22T16:20:42;25.04;52.07
66582;SHT31;53438;48.898;2.308;2023-06-22T16:23:07;25.11;52.79
66582;SHT31;53438;48.898;2.308;2023-06-22T16:25:32;24.97;52.45
66582;SHT31;53438;48.898;2.308;2023-06-22T16:27:58;24.96;53.22
66582;SHT31;53438;48.898;2.308;2023-06-22T16:30:23;24.97;52.81
66582;SHT31;53438;48.898;2.308;2023-06-22T16:32:52;24.97;52.59
66582;SHT31;53438;48.898;2.308;2023-06-22T16:35:22;24.99;51.75
66582;SHT31;53438;48.898;2.308;2023-06-22T16:37:48;25.00;51.62
66582;SHT31;53438;48.898;2.308;2023-06-22T16:40:13;24.99;50.38
66582;SHT31;53438;48.898;2.308;2023-06-22T16:42:40;25.03;50.77
66582;SHT31;53438;48.898;2.308;2023-06-22T16:45:06;25.19;50.02
66582;SHT31;53438;48.898;2.308;2023-06-22T16:47:31;25.20;51.11
66582;SHT31;53438;48.898;2.308;2023-06-22T16:49:57;25.21;50.35
66582;SHT31;53438;48.898;2.308;2023-06-22T16:52:22;25.13;49.81
66582;SHT31;53438;48.898;2.308;2023-06-22T16:54:48;25.06;49.39
66582;SHT31;53438;48.898;2.308;2023-06-22T16:57:14;25.14;49.33
66582;SHT31;53438;48.898;2.308;2023-06-22T16:59:39;25.00;50.59
66582;SHT31;53438;48.898;2.308;2023-06-22T17:02:12;24.94;51.29
66582;SHT31;53438;48.898;2.308;2023-06-22T17:04:41;24.77;52.36
66582;SHT31;53438;48.898;2.308;2023-06-22T17:07:11;24.83;52.90
66582;SHT31;53438;48.898;2.308;2023-06-22T17:09:37;24.75;54.06
66582;SHT31;53438;48.898;2.308;2023-06-22T17:12:05;24.70;53.99
66582;SHT31;53438;48.898;2.308;2023-06-22T17:14:31;24.63;53.99
66582;SHT31;53438;48.898;2.308;2023-06-22T17:16:56;24.58;54.43
66582;SHT31;53438;48.898;2.308;2023-06-22T17:19:23;24.52;54.77
66582;SHT31;53438;48.898;2.308;2023-06-22T17:21:49;24.52;54.99
66582;SHT31;53438;48.898;2.308;2023-06-22T17:24:18;24.52;55.56
66582;SHT31;53438;48.898;2.308;2023-06-22T17:26:53;24.52;54.69
66582;SHT31;53438;48.898;2.308;2023-06-22T17:29:19;24.55;54.77
66582;SHT31;53438;48.898;2.308;2023-06-22T17:31:45;24.47;55.53
66582;SHT31;53438;48.898;2.308;2023-06-22T17:34:13;24.61;53.93
66582;SHT31;53438;48.898;2.308;2023-06-22T17:36:46;24.55;52.22
66582;SHT31;53438;48.898;2.308;2023-06-22T17:39:18;24.59;52.15
66582;SHT31;53438;48.898;2.308;2023-06-22T17:41:47;24.33;51.61
66582;SHT31;53438;48.898;2.308;2023-06-22T17:44:13;24.33;51.50
66582;SHT31;53438;48.898;2.308;2023-06-22T17:46:40;24.31;52.09
66582;SHT31;53438;48.898;2.308;2023-06-22T17:49:09;24.22;52.43
66582;SHT31;53438;48.898;2.308;2023-06-22T17:51:36;24.20;52.53
66582;SHT31;53438;48.898;2.308;2023-06-22T17:54:04;24.08;52.67
66582;SHT31;53438;48.898;2.308;2023-06-22T17:56:32;24.00;51.86
66582;SHT31;53438;48.898;2.308;2023-06-22T17:58:58;23.97;52.48
66582;SHT31;53438;48.898;2.308;2023-06-22T18:01:34;24.05;52.32
66582;SHT31;53438;48.898;2.308;2023-06-22T18:04:05;23.98;52.27
66582;SHT31;53438;48.898;2.308;2023-06-22T18:06:39;23.88;52.33
66582;SHT31;53438;48.898;2.308;2023-06-22T18:09:06;23.85;52.78
66582;SHT31;53438;48.898;2.308;2023-06-22T18:11:33;23.88;52.68
66582;SHT31;53438;48.898;2.308;2023-06-22T18:14:05;23.85;53.19
66582;SHT31;53438;48.898;2.308;2023-06-22T18:16:32;23.87;53.11
66582;SHT31;53438;48.898;2.308;2023-06-22T18:19:00;23.83;53.80
66582;SHT31;53438;48.898;2.308;2023-06-22T18:21:26;23.71;54.01
66582;SHT31;53438;48.898;2.308;2023-06-22T18:23:52;23.71;54.50
66582;SHT31;53438;48.898;2.308;2023-06-22T18:26:25;23.71;54.44